Time;durP1;ratioP1;P1;durP2;ratioP2;P2;SDS_P1;SDS_P2;PMS_P1;PMS_P2;Temp;Humidity;BMP_temperature;BMP_pressure;BME280_temperature;BME280_humidity;BME280_pressure;Samples;Min_cycle;Max_cycle;Signal;HPM_P1;HPM_P2
2021/11/05 00:00:30;;;;;;;;;;;;;;;14.43;73.30;101239.34;1049268;28;885;-61
2021/11/05 00:01:20;;;;;;;;;;;;;;;14.42;74.02;101236.78;1048669;28;618;-60
2021/11/05 00:02:11;;;;;;;;;;;;;;;14.42;74.16;101239.47;1051797;28;755;-60
2021/11/05 00:03:01;;;;;;;;;;;;;;;14.41;73.29;101241.28;1051678;28;911;-60
2021/11/05 00:03:52;;;;;;;;;;;;;;;14.42;73.03;101244.84;1053644;28;704;-60
2021/11/05 00:04:42;;;;;;;;;;;;;;;14.41;73.86;101245.81;1053251;28;690;-60
2021/11/05 00:05:32;;;;;;;;;;;;;;;14.42;73.18;101242.16;1045744;28;661;-60
2021/11/05 00:06:23;;;;;;;;;;;;;;;14.41;73.94;101245.81;1046277;28;712;-60
2021/11/05 00:07:13;;;;;;;;;;;;;;;14.40;73.71;101242.25;1047877;28;765;-60
2021/11/05 00:08:07;;;;;;;;;;;;;;;14.41;73.92;101245.81;1048876;28;806;-60
2021/11/05 00:08:58;;;;;;;;;;;;;;;14.41;73.49;101240.44;1049217;28;981;-59
2021/11/05 00:09:48;;;;;;;;;;;;;;;14.40;73.25;101244.94;1047916;28;722;-58
2021/11/05 00:10:38;;;;;;;;;;;;;;;14.41;73.64;101240.44;1048828;28;724;-58
2021/11/05 00:11:29;;;;;;;;;;;;;;;14.40;73.40;101244.94;1048465;28;868;-59
2021/11/05 00:12:19;;;;;;;;;;;;;;;14.41;74.08;101251.16;1045249;28;638;-59
2021/11/05 00:13:10;;;;;;;;;;;;;;;14.41;73.87;101248.47;1047535;28;749;-59
2021/11/05 00:14:00;;;;;;;;;;;;;;;14.40;73.55;101244.06;1048545;28;792;-59
2021/11/05 00:14:51;;;;;;;;;;;;;;;14.39;73.83;101242.34;1048637;28;1864;-60
2021/11/05 00:15:41;;;;;;;;;;;;;;;14.40;74.11;101244.06;1044964;28;786;-59
2021/11/05 00:16:32;;;;;;;;;;;;;;;14.39;73.95;101250.38;1044906;28;645;-60
2021/11/05 00:17:22;;;;;;;;;;;;;;;14.37;73.26;101244.28;1044083;28;836;-60
2021/11/05 00:18:13;;;;;;;;;;;;;;;14.38;73.23;101246.84;1047149;28;607;-60
2021/11/05 00:19:03;;;;;;;;;;;;;;;14.37;73.38;101253.19;1048774;28;1106;-59
2021/11/05 00:19:54;;;;;;;;;;;;;;;14.37;73.94;101249.63;1048451;28;692;-60
2021/11/05 00:20:44;;;;;;;;;;;;;;;14.37;73.63;101255.00;1048671;28;798;-59
2021/11/05 00:21:35;;;;;;;;;;;;;;;14.37;73.55;101249.63;1048284;28;1890;-60
2021/11/05 00:22:25;;;;;;;;;;;;;;;14.37;73.27;101252.31;1048562;28;685;-60
2021/11/05 00:23:16;;;;;;;;;;;;;;;14.37;73.31;101253.19;1048841;28;639;-60
2021/11/05 00:24:07;;;;;;;;;;;;;;;14.37;73.70;101252.31;1049186;28;934;-59
2021/11/05 00:24:57;;;;;;;;;;;;;;;14.37;74.01;101257.69;1049138;28;751;-59
2021/11/05 00:25:47;;;;;;;;;;;;;;;14.37;73.12;101255.00;1048805;28;870;-60
2021/11/05 00:26:38;;;;;;;;;;;;;;;14.37;73.52;101258.53;1048396;28;805;-60
2021/11/05 00:27:28;;;;;;;;;;;;;;;14.38;73.42;101264.75;1049186;28;650;-60
2021/11/05 00:28:19;;;;;;;;;;;;;;;14.37;73.40;101260.38;1049326;28;661;-60
2021/11/05 00:29:09;;;;;;;;;;;;;;;14.38;73.12;101260.25;1049133;28;843;-60
2021/11/05 00:30:00;;;;;;;;;;;;;;;14.37;73.28;101261.22;1049211;28;807;-60
2021/11/05 00:30:50;;;;;;;;;;;;;;;14.36;73.67;101262.19;1049175;28;726;-59
2021/11/05 00:31:41;;;;;;;;;;;;;;;14.37;73.67;101260.38;1048998;28;1804;-60
2021/11/05 00:32:31;;;;;;;;;;;;;;;14.36;73.39;101259.50;1044287;28;1521;-60
2021/11/05 00:33:22;;;;;;;;;;;;;;;14.35;73.91;101259.63;1049889;28;1544;-57
2021/11/05 00:34:12;;;;;;;;;;;;;;;14.36;74.02;101264.00;1050245;28;1693;-60
2021/11/05 00:35:02;;;;;;;;;;;;;;;14.35;73.52;101268.53;1049085;28;1310;-60
2021/11/05 00:35:53;;;;;;;;;;;;;;;14.37;73.79;101273.78;1048400;28;1649;-61
2021/11/05 00:36:43;;;;;;;;;;;;;;;14.36;73.37;101266.69;1049001;28;1341;-61
2021/11/05 00:37:34;;;;;;;;;;;;;;;14.36;73.49;101269.38;1048573;28;1306;-61
2021/11/05 00:38:24;;;;;;;;;;;;;;;14.35;74.00;101267.66;1048850;28;1447;-61
2021/11/05 00:39:15;;;;;;;;;;;;;;;14.35;73.77;101267.66;1049644;28;1749;-61
2021/11/05 00:40:05;;;;;;;;;;;;;;;14.35;73.30;101273.88;1051754;28;1564;-60
2021/11/05 00:40:55;;;;;;;;;;;;;;;14.35;73.41;101278.38;1049076;28;1530;-60
2021/11/05 00:41:46;;;;;;;;;;;;;;;14.36;73.55;101275.59;1048183;28;1948;-60
2021/11/05 00:42:36;;;;;;;;;;;;;;;14.36;73.98;101277.41;1048041;28;1358;-60
2021/11/05 00:43:27;;;;;;;;;;;;;;;14.34;73.47;101280.22;1050868;28;1495;-60
2021/11/05 00:44:17;;;;;;;;;;;;;;;14.34;74.16;101276.66;1048478;28;970;-58
2021/11/05 00:45:08;;;;;;;;;;;;;;;14.34;73.48;101276.66;1049863;28;1556;-60
2021/11/05 00:45:58;;;;;;;;;;;;;;;14.32;73.66;101274.13;1048994;28;1432;-58
2021/11/05 00:46:48;;;;;;;;;;;;;;;14.34;73.93;101268.63;1049378;28;1385;-58
2021/11/05 00:47:39;;;;;;;;;;;;;;;14.33;73.97;101280.34;1048869;28;1355;-58
2021/11/05 00:48:29;;;;;;;;;;;;;;;14.32;73.79;101274.13;1048665;28;1614;-59
2021/11/05 00:49:20;;;;;;;;;;;;;;;14.32;73.65;101276.81;1047832;28;1781;-59
2021/11/05 00:50:10;;;;;;;;;;;;;;;14.34;73.75;101274.00;1049095;28;1467;-59
2021/11/05 00:51:01;;;;;;;;;;;;;;;14.32;74.16;101278.63;1050220;28;1701;-60
2021/11/05 00:51:51;;;;;;;;;;;;;;;14.33;73.87;101272.31;1049562;28;1648;-59
2021/11/05 00:52:42;;;;;;;;;;;;;;;14.33;73.25;101266.94;1049014;28;1474;-59
2021/11/05 00:53:32;;;;;;;;;;;;;;;14.33;73.94;101266.94;1049027;28;1448;-59
2021/11/05 00:54:22;;;;;;;;;;;;;;;14.33;73.88;101270.47;1051135;28;1527;-59
2021/11/05 00:55:13;;;;;;;;;;;;;;;14.31;73.85;101272.41;1052160;28;1701;-59
2021/11/05 00:56:03;;;;;;;;;;;;;;;14.32;73.33;101273.28;1049919;28;1529;-59
2021/11/05 00:56:54;;;;;;;;;;;;;;;14.32;73.63;101273.28;1050983;28;1554;-59
2021/11/05 00:57:44;;;;;;;;;;;;;;;14.31;73.33;101271.56;1050939;28;1534;-59
2021/11/05 00:58:35;;;;;;;;;;;;;;;14.33;73.20;101275.00;1050558;28;1632;-60
2021/11/05 00:59:25;;;;;;;;;;;;;;;14.31;74.02;101277.78;1050770;28;1685;-60
2021/11/05 01:00:16;;;;;;;;;;;;;;;14.32;73.44;101278.63;1048846;28;1497;-60
2021/11/05 01:01:06;;;;;;;;;;;;;;;14.31;73.32;101276.94;1048972;28;1543;-59
2021/11/05 01:01:57;;;;;;;;;;;;;;;14.31;73.39;101271.56;1050965;28;1909;-59
2021/11/05 01:02:47;;;;;;;;;;;;;;;14.30;74.12;101269.84;1050563;28;1488;-60
2021/11/05 01:03:37;;;;;;;;;;;;;;;14.29;74.21;101276.19;1050869;28;1391;-60
2021/11/05 01:04:28;;;;;;;;;;;;;;;14.29;73.80;101274.34;1050732;28;1620;-60
2021/11/05 01:05:18;;;;;;;;;;;;;;;14.30;73.31;101275.22;1051016;28;1330;-60
2021/11/05 01:06:09;;;;;;;;;;;;;;;14.29;74.20;101274.34;1051840;28;1483;-60
2021/11/05 01:06:59;;;;;;;;;;;;;;;14.30;73.93;101281.44;1048896;28;1358;-60
2021/11/05 01:07:50;;;;;;;;;;;;;;;14.30;73.44;101283.25;1049509;28;1488;-60
2021/11/05 01:08:40;;;;;;;;;;;;;;;14.29;74.23;101284.22;1051069;28;1552;-60
2021/11/05 01:09:30;;;;;;;;;;;;;;;14.29;74.13;101290.44;1049197;28;1670;-60
2021/11/05 01:10:21;;;;;;;;;;;;;;;14.29;73.58;101281.53;1049103;28;633;-60
2021/11/05 01:11:11;;;;;;;;;;;;;;;14.29;73.67;101287.75;1048356;28;1552;-60
2021/11/05 01:12:01;;;;;;;;;;;;;;;14.29;74.05;101289.59;1049006;28;1465;-60
2021/11/05 01:12:52;;;;;;;;;;;;;;;14.29;73.77;101293.13;1051630;28;1490;-60
2021/11/05 01:13:42;;;;;;;;;;;;;;;14.29;73.51;101294.94;1051464;28;1489;-60
2021/11/05 01:14:33;;;;;;;;;;;;;;;14.29;73.67;101292.25;1050262;28;1504;-61
2021/11/05 01:15:23;;;;;;;;;;;;;;;14.28;73.23;101293.22;1050098;28;1804;-61
2021/11/05 01:16:14;;;;;;;;;;;;;;;14.27;73.38;101295.06;1048929;28;1488;-61
2021/11/05 01:17:04;;;;;;;;;;;;;;;14.27;73.34;101292.38;1049286;28;1844;-61
2021/11/05 01:17:55;;;;;;;;;;;;;;;14.27;74.00;101297.75;1052574;28;1277;-59
2021/11/05 01:18:47;;;;;;;;;;;;;;;14.27;73.49;101296.88;1050874;28;1583;-60
2021/11/05 01:19:37;;;;;;;;;;;;;;;14.26;73.70;101301.38;1049201;28;1498;-60
2021/11/05 01:20:28;;;;;;;;;;;;;;;14.27;73.80;101300.41;1048873;28;1390;-60
2021/11/05 01:21:18;;;;;;;;;;;;;;;14.26;74.13;101301.38;1048342;28;1561;-60
2021/11/05 01:22:08;;;;;;;;;;;;;;;14.26;73.40;101306.75;1049714;28;1402;-60
2021/11/05 01:22:59;;;;;;;;;;;;;;;14.27;73.36;101300.41;1047863;28;1506;-59
2021/11/05 01:23:49;;;;;;;;;;;;;;;14.25;74.15;101308.56;1053166;28;1495;-60
2021/11/05 01:24:40;;;;;;;;;;;;;;;14.26;73.60;101306.75;1049740;28;1550;-59
2021/11/05 01:25:30;;;;;;;;;;;;;;;14.25;73.25;101300.53;1052273;28;1480;-59
2021/11/05 01:26:21;;;;;;;;;;;;;;;14.24;74.10;101306.84;1051295;28;1374;-60
2021/11/05 01:27:11;;;;;;;;;;;;;;;14.26;73.21;101306.75;1049436;28;2006;-60
2021/11/05 01:28:02;;;;;;;;;;;;;;;14.27;73.64;101302.25;1048993;28;1402;-59
2021/11/05 01:28:52;;;;;;;;;;;;;;;14.26;73.51;101309.44;1048723;28;1459;-59
2021/11/05 01:29:43;;;;;;;;;;;;;;;14.27;73.35;101304.91;1049964;28;1475;-59
2021/11/05 01:30:35;;;;;;;;;;;;;;;14.24;74.08;101306.00;1048930;28;1395;-60
2021/11/05 01:31:25;;;;;;;;;;;;;;;14.23;74.29;101307.81;1051204;28;1481;-60
2021/11/05 01:32:16;;;;;;;;;;;;;;;14.23;73.73;101305.13;1050582;28;1478;-60
2021/11/05 01:33:09;;;;;;;;;;;;;;;14.24;73.27;101308.69;1048702;28;1322;-59
2021/11/05 01:33:59;;;;;;;;;;;;;;;14.24;73.83;101311.34;1049287;28;1596;-60
2021/11/05 01:34:50;;;;;;;;;;;;;;;14.24;74.19;101314.91;1050969;28;1565;-59
2021/11/05 01:35:40;;;;;;;;;;;;;;;14.24;73.38;101314.91;1050569;28;1701;-59
2021/11/05 01:36:31;;;;;;;;;;;;;;;14.24;73.53;101309.53;1051593;28;1571;-59
2021/11/05 01:37:21;;;;;;;;;;;;;;;14.24;73.73;101314.91;1048679;28;1590;-59
2021/11/05 01:38:12;;;;;;;;;;;;;;;14.24;73.27;101312.22;1048734;28;1576;-60
2021/11/05 01:39:02;;;;;;;;;;;;;;;14.23;73.82;101318.53;1049761;28;1529;-59
2021/11/05 01:39:52;;;;;;;;;;;;;;;14.22;74.13;101310.59;1050600;28;1341;-59
2021/11/05 01:40:43;;;;;;;;;;;;;;;14.21;73.49;101323.16;1050094;28;1701;-59
2021/11/05 01:41:33;;;;;;;;;;;;;;;14.21;73.74;101315.13;1050582;28;1811;-60
2021/11/05 01:42:24;;;;;;;;;;;;;;;14.21;73.86;101315.13;1052555;28;654;-60
2021/11/05 01:43:14;;;;;;;;;;;;;;;14.21;73.40;101320.47;1052348;28;858;-60
2021/11/05 01:44:05;;;;;;;;;;;;;;;14.22;73.84;101316.81;1048060;28;661;-60
2021/11/05 01:44:55;;;;;;;;;;;;;;;14.23;73.64;101317.69;1047506;28;2029;-60
2021/11/05 01:45:47;;;;;;;;;;;;;;;14.22;73.22;101324.88;1052258;28;1382;-60
2021/11/05 01:46:42;;;;;;;;;;;;;;;14.22;73.62;101315.97;1049581;28;1445;-60
2021/11/05 01:47:33;;;;;;;;;;;;;;;14.23;74.08;101323.03;1051529;28;1554;-59
2021/11/05 01:48:24;;;;;;;;;;;;;;;14.23;73.39;101323.91;1049079;28;1469;-60
2021/11/05 01:49:15;;;;;;;;;;;;;;;14.22;73.80;101318.66;1050774;28;1642;-60
2021/11/05 01:50:05;;;;;;;;;;;;;;;14.22;73.45;101322.19;1049531;28;1501;-60
2021/11/05 01:50:56;;;;;;;;;;;;;;;14.22;73.64;101319.50;1048611;28;962;-60
2021/11/05 01:51:47;;;;;;;;;;;;;;;14.22;73.76;101322.19;1048462;28;1646;-59
2021/11/05 01:52:37;;;;;;;;;;;;;;;14.21;73.82;101315.13;1045072;28;1593;-60
2021/11/05 01:53:27;;;;;;;;;;;;;;;14.21;73.74;101320.47;1050137;28;1403;-59
2021/11/05 01:54:18;;;;;;;;;;;;;;;14.20;73.58;101324.13;1051310;28;1470;-60
2021/11/05 01:55:10;;;;;;;;;;;;;;;14.19;73.97;101322.41;1050048;28;1479;-59
2021/11/05 01:56:01;;;;;;;;;;;;;;;14.19;73.78;101325.09;1050695;28;1352;-60
2021/11/05 01:56:51;;;;;;;;;;;;;;;14.18;74.13;101319.84;1047982;28;711;-60
2021/11/05 01:57:42;;;;;;;;;;;;;;;14.18;73.35;101327.88;1048564;28;881;-60
2021/11/05 01:58:32;;;;;;;;;;;;;;;14.18;73.13;101326.06;1048621;28;818;-60
2021/11/05 01:59:23;;;;;;;;;;;;;;;14.19;73.76;101327.78;1049751;28;1691;-60
2021/11/05 02:00:13;;;;;;;;;;;;;;;14.19;73.02;101325.09;1050605;28;1588;-60
2021/11/05 02:01:04;;;;;;;;;;;;;;;14.19;74.04;101327.78;1050896;28;1431;-60
2021/11/05 02:01:54;;;;;;;;;;;;;;;14.19;73.44;101326.91;1047759;28;1961;-59
2021/11/05 02:02:45;;;;;;;;;;;;;;;14.18;73.97;101326.06;1051396;28;1482;-60
2021/11/05 02:03:35;;;;;;;;;;;;;;;14.20;73.83;101328.63;1050296;28;1500;-60
2021/11/05 02:04:29;;;;;;;;;;;;;;;14.18;73.64;101323.38;1050301;28;1481;-60
2021/11/05 02:05:19;;;;;;;;;;;;;;;14.18;73.74;101331.41;1051877;28;1489;-61
2021/11/05 02:06:09;;;;;;;;;;;;;;;14.17;73.76;101329.69;1050999;28;1420;-61
2021/11/05 02:07:00;;;;;;;;;;;;;;;14.18;73.72;101330.56;1051007;28;1362;-60
2021/11/05 02:07:51;;;;;;;;;;;;;;;14.14;73.83;101324.59;1050955;28;1413;-60
2021/11/05 02:08:41;;;;;;;;;;;;;;;14.15;73.82;101326.28;1050672;28;1560;-61
2021/11/05 02:09:33;;;;;;;;;;;;;;;14.16;73.08;101327.13;1048830;28;1436;-61
2021/11/05 02:10:23;;;;;;;;;;;;;;;14.15;73.56;101330.81;1050173;28;1506;-60
2021/11/05 02:11:14;;;;;;;;;;;;;;;14.16;73.58;101327.13;1048667;28;1706;-60
2021/11/05 02:12:04;;;;;;;;;;;;;;;14.16;73.71;101332.50;1050887;28;1464;-60
2021/11/05 02:12:55;;;;;;;;;;;;;;;14.16;73.19;101327.13;1050978;28;1345;-60
2021/11/05 02:13:45;;;;;;;;;;;;;;;14.14;73.69;101327.28;1052122;28;1562;-60
2021/11/05 02:14:36;;;;;;;;;;;;;;;14.14;73.91;101327.28;1048458;28;1427;-59
2021/11/05 02:15:26;;;;;;;;;;;;;;;14.17;74.10;101328.84;1047845;28;1490;-59
2021/11/05 02:16:17;;;;;;;;;;;;;;;14.14;73.64;101327.28;1048624;28;1493;-59
2021/11/05 02:17:07;;;;;;;;;;;;;;;14.15;73.09;101331.63;1047808;28;1734;-59
2021/11/05 02:17:57;;;;;;;;;;;;;;;14.15;73.00;101334.31;1048398;28;1302;-59
2021/11/05 02:18:48;;;;;;;;;;;;;;;14.15;73.57;101333.47;1050390;28;1453;-59
2021/11/05 02:19:38;;;;;;;;;;;;;;;14.14;73.73;101329.94;1048461;28;1470;-58
2021/11/05 02:20:29;;;;;;;;;;;;;;;14.14;73.25;101338.00;1048381;28;1336;-59
2021/11/05 02:21:19;;;;;;;;;;;;;;;14.14;73.64;101331.78;1048403;28;613;-59
2021/11/05 02:22:09;;;;;;;;;;;;;;;14.13;73.77;101338.94;1049492;28;756;-59
2021/11/05 02:23:00;;;;;;;;;;;;;;;14.13;73.43;101336.28;1048937;28;1826;-60
2021/11/05 02:23:50;;;;;;;;;;;;;;;14.12;73.65;101334.56;1048687;28;625;-60
2021/11/05 02:24:41;;;;;;;;;;;;;;;14.12;73.65;101337.25;1047841;28;1095;-60
2021/11/05 02:25:32;;;;;;;;;;;;;;;14.13;73.70;101330.91;1048256;28;697;-60
2021/11/05 02:26:22;;;;;;;;;;;;;;;14.13;74.03;101338.94;1048067;28;770;-60
2021/11/05 02:27:13;;;;;;;;;;;;;;;14.11;73.76;101335.53;1048293;28;781;-59
2021/11/05 02:28:03;;;;;;;;;;;;;;;14.12;73.60;101339.06;1048091;28;718;-60
2021/11/05 02:28:54;;;;;;;;;;;;;;;14.13;73.56;101341.63;1048267;28;701;-59
2021/11/05 02:29:44;;;;;;;;;;;;;;;14.12;73.79;101347.09;1048020;28;595;-60
2021/11/05 02:30:34;;;;;;;;;;;;;;;14.10;73.64;101339.16;1048216;28;613;-60
2021/11/05 02:31:25;;;;;;;;;;;;;;;14.11;73.45;101343.56;1048642;28;804;-60
2021/11/05 02:32:15;;;;;;;;;;;;;;;14.10;73.37;101344.53;1048155;28;814;-61
2021/11/05 02:33:06;;;;;;;;;;;;;;;14.11;73.63;101346.25;1048278;28;733;-61
2021/11/05 02:33:56;;;;;;;;;;;;;;;14.11;74.10;101351.59;1047990;28;610;-61
2021/11/05 02:34:47;;;;;;;;;;;;;;;14.10;73.62;101349.88;1048437;28;1811;-61
2021/11/05 02:35:37;;;;;;;;;;;;;;;14.09;73.42;101348.16;1051982;28;664;-61
2021/11/05 02:36:28;;;;;;;;;;;;;;;14.10;74.13;101351.72;1052398;28;707;-61
2021/11/05 02:37:18;;;;;;;;;;;;;;;14.09;73.97;101350.00;1052059;28;835;-61
2021/11/05 02:38:09;;;;;;;;;;;;;;;14.09;73.91;101352.69;1052463;28;661;-61
2021/11/05 02:38:59;;;;;;;;;;;;;;;14.09;73.91;101352.69;1051976;28;1000;-61
2021/11/05 02:39:50;;;;;;;;;;;;;;;14.08;73.47;101354.50;1052215;28;798;-61
2021/11/05 02:40:40;;;;;;;;;;;;;;;14.10;73.46;101355.25;1052324;28;1206;-61
2021/11/05 02:41:30;;;;;;;;;;;;;;;14.09;73.11;101358.91;1052094;28;941;-61
2021/11/05 02:42:21;;;;;;;;;;;;;;;14.08;74.29;101356.31;1052477;28;767;-61
2021/11/05 02:43:11;;;;;;;;;;;;;;;14.07;73.85;101363.50;1052074;28;854;-61
2021/11/05 02:44:02;;;;;;;;;;;;;;;14.08;73.17;101357.19;1052322;28;761;-61
2021/11/05 02:44:52;;;;;;;;;;;;;;;14.08;73.27;101364.34;1052682;28;740;-61
2021/11/05 02:45:43;;;;;;;;;;;;;;;14.08;73.79;101353.63;1052181;28;1028;-61
2021/11/05 02:46:33;;;;;;;;;;;;;;;14.08;73.32;101357.19;1049544;28;1618;-60
2021/11/05 02:47:26;;;;;;;;;;;;;;;14.07;73.75;101360.81;1048853;28;1770;-61
2021/11/05 02:48:17;;;;;;;;;;;;;;;14.07;73.61;101360.81;1048282;28;638;-61
2021/11/05 02:49:07;;;;;;;;;;;;;;;14.06;73.82;101356.44;1048190;28;1891;-59
2021/11/05 02:49:58;;;;;;;;;;;;;;;14.07;73.62;101365.31;1048786;28;798;-60
2021/11/05 02:50:48;;;;;;;;;;;;;;;14.07;73.90;101371.53;1048604;28;751;-61
2021/11/05 02:51:39;;;;;;;;;;;;;;;14.06;74.04;101359.09;1048646;28;802;-61
2021/11/05 02:52:29;;;;;;;;;;;;;;;14.06;73.87;101353.75;1048568;28;720;-61
2021/11/05 02:53:19;;;;;;;;;;;;;;;14.06;73.99;101353.75;1048671;28;631;-61
2021/11/05 02:54:10;;;;;;;;;;;;;;;14.07;73.00;101357.28;1048654;28;878;-60
2021/11/05 02:55:00;;;;;;;;;;;;;;;14.06;73.22;101358.25;1048607;28;796;-60
2021/11/05 02:55:51;;;;;;;;;;;;;;;14.03;73.99;101362.00;1048722;28;795;-60
2021/11/05 02:56:41;;;;;;;;;;;;;;;14.04;74.10;101355.69;1048590;28;749;-60
2021/11/05 02:57:32;;;;;;;;;;;;;;;14.04;73.63;101369.06;1048824;28;791;-60
2021/11/05 02:58:23;;;;;;;;;;;;;;;14.03;73.34;101359.31;1048566;28;779;-61
2021/11/05 02:59:13;;;;;;;;;;;;;;;14.03;73.00;101363.81;1048633;28;1871;-61
2021/11/05 03:00:03;;;;;;;;;;;;;;;14.03;73.43;101363.81;1048012;28;852;-60
2021/11/05 03:00:55;;;;;;;;;;;;;;;14.03;73.23;101370.03;1048335;28;736;-60
2021/11/05 03:01:45;;;;;;;;;;;;;;;14.02;73.58;101362.97;1047872;28;1914;-60
2021/11/05 03:02:36;;;;;;;;;;;;;;;14.02;73.24;101367.47;1048106;28;840;-60
2021/11/05 03:03:26;;;;;;;;;;;;;;;14.03;74.06;101374.53;1049209;28;732;-60
2021/11/05 03:04:16;;;;;;;;;;;;;;;14.03;73.88;101369.19;1047992;28;918;-60
2021/11/05 03:05:07;;;;;;;;;;;;;;;14.03;73.78;101369.19;1049396;28;2084;-60
2021/11/05 03:05:57;;;;;;;;;;;;;;;14.01;73.17;101377.31;1048652;28;939;-60
2021/11/05 03:06:48;;;;;;;;;;;;;;;14.02;73.91;101373.69;1048740;28;712;-60
2021/11/05 03:07:38;;;;;;;;;;;;;;;14.03;73.83;101375.41;1048602;28;744;-60
2021/11/05 03:08:29;;;;;;;;;;;;;;;14.01;73.22;101371.97;1047438;28;853;-60
2021/11/05 03:09:19;;;;;;;;;;;;;;;14.02;73.43;101371.00;1048393;28;1461;-60
2021/11/05 03:10:09;;;;;;;;;;;;;;;14.02;74.08;101372.81;1048446;28;720;-60
2021/11/05 03:11:00;;;;;;;;;;;;;;;14.02;73.17;101380.88;1048700;28;1991;-60
2021/11/05 03:11:50;;;;;;;;;;;;;;;14.01;73.87;101380.00;1048539;28;708;-60
2021/11/05 03:12:41;;;;;;;;;;;;;;;14.01;73.50;101382.69;1048720;28;929;-60
2021/11/05 03:13:31;;;;;;;;;;;;;;;14.02;72.97;101383.53;1048484;28;700;-60
2021/11/05 03:14:22;;;;;;;;;;;;;;;14.00;73.71;101380.97;1048708;28;681;-60
2021/11/05 03:15:12;;;;;;;;;;;;;;;14.00;73.13;101380.97;1047845;28;610;-60
2021/11/05 03:16:03;;;;;;;;;;;;;;;14.01;73.56;101380.00;1049343;28;796;-60
2021/11/05 03:16:53;;;;;;;;;;;;;;;13.99;73.46;101384.63;1049324;28;802;-60
2021/11/05 03:17:43;;;;;;;;;;;;;;;13.99;72.95;101383.75;1049112;28;648;-60
2021/11/05 03:18:38;;;;;;;;;;;;;;;14.00;74.09;101391.69;1049213;28;710;-60
2021/11/05 03:19:29;;;;;;;;;;;;;;;13.99;73.57;101387.28;1049421;28;793;-60
2021/11/05 03:20:19;;;;;;;;;;;;;;;13.99;73.30;101392.66;1049113;28;777;-60
2021/11/05 03:21:10;;;;;;;;;;;;;;;13.99;73.57;101392.66;1049276;28;936;-61
2021/11/05 03:22:00;;;;;;;;;;;;;;;13.99;73.73;101395.34;1049850;28;1889;-60
2021/11/05 03:22:51;;;;;;;;;;;;;;;13.98;74.01;101396.28;1049456;28;1809;-61
2021/11/05 03:23:41;;;;;;;;;;;;;;;13.98;73.67;101398.97;1049553;28;718;-60
2021/11/05 03:24:32;;;;;;;;;;;;;;;13.98;73.20;101396.28;1049415;28;637;-60
2021/11/05 03:25:22;;;;;;;;;;;;;;;13.99;73.10;101400.69;1049544;28;876;-60
2021/11/05 03:26:12;;;;;;;;;;;;;;;13.97;73.59;101394.59;1049453;28;697;-60
2021/11/05 03:27:03;;;;;;;;;;;;;;;13.98;73.30;101400.78;1049501;28;808;-60
2021/11/05 03:27:53;;;;;;;;;;;;;;;13.98;73.76;101395.44;1049301;28;735;-60
2021/11/05 03:28:44;;;;;;;;;;;;;;;13.97;73.95;101402.66;1049406;28;703;-60
2021/11/05 03:29:34;;;;;;;;;;;;;;;13.97;73.51;101405.34;1049365;28;908;-60
2021/11/05 03:30:24;;;;;;;;;;;;;;;13.97;73.10;101415.19;1049428;28;677;-60
2021/11/05 03:31:15;;;;;;;;;;;;;;;13.95;73.21;101409.94;1052457;28;2072;-60
2021/11/05 03:32:05;;;;;;;;;;;;;;;13.96;73.10;101411.66;1052727;28;822;-61
2021/11/05 03:32:56;;;;;;;;;;;;;;;13.97;73.28;101412.50;1052827;28;815;-60
2021/11/05 03:33:47;;;;;;;;;;;;;;;13.96;72.97;101414.34;1052507;28;792;-60
2021/11/05 03:34:37;;;;;;;;;;;;;;;13.97;73.14;101418.72;1052813;28;683;-60
2021/11/05 03:35:28;;;;;;;;;;;;;;;13.96;73.47;101408.97;1052998;28;879;-60
2021/11/05 03:36:18;;;;;;;;;;;;;;;13.95;73.78;101423.34;1052718;28;642;-61
2021/11/05 03:37:09;;;;;;;;;;;;;;;13.95;73.61;101415.28;1052824;28;697;-61
2021/11/05 03:37:59;;;;;;;;;;;;;;;13.96;73.53;101417.00;1052423;28;778;-61
2021/11/05 03:38:49;;;;;;;;;;;;;;;13.95;73.31;101422.47;1052728;28;765;-60
2021/11/05 03:39:40;;;;;;;;;;;;;;;13.95;72.96;101417.13;1052744;28;732;-61
2021/11/05 03:40:32;;;;;;;;;;;;;;;13.94;73.70;101429.66;1052615;28;1231;-61
2021/11/05 03:41:23;;;;;;;;;;;;;;;13.94;73.16;101426.13;1049203;28;1746;-61
2021/11/05 03:42:13;;;;;;;;;;;;;;;13.94;73.92;101423.44;1049218;28;1910;-61
2021/11/05 03:43:03;;;;;;;;;;;;;;;13.94;73.77;101426.13;1049367;28;802;-60
2021/11/05 03:43:54;;;;;;;;;;;;;;;13.93;73.43;101432.44;1049340;28;734;-60
2021/11/05 03:44:44;;;;;;;;;;;;;;;13.92;73.70;101436.94;1049226;28;670;-61
2021/11/05 03:45:35;;;;;;;;;;;;;;;13.93;73.14;101435.97;1049352;28;747;-61
2021/11/05 03:46:27;;;;;;;;;;;;;;;13.92;73.56;101426.22;1050497;28;1700;-60
2021/11/05 03:47:17;;;;;;;;;;;;;;;13.92;73.58;101436.94;1052878;28;681;-61
2021/11/05 03:48:08;;;;;;;;;;;;;;;13.92;73.09;101436.94;1052663;28;756;-61
2021/11/05 03:48:58;;;;;;;;;;;;;;;13.92;73.57;101442.28;1053167;28;787;-61
2021/11/05 03:49:49;;;;;;;;;;;;;;;13.92;73.21;101442.28;1052707;28;740;-61
2021/11/05 03:50:39;;;;;;;;;;;;;;;13.92;73.72;101447.66;1052810;28;803;-60
2021/11/05 03:51:29;;;;;;;;;;;;;;;13.92;73.14;101442.28;1052628;28;781;-60
2021/11/05 03:52:20;;;;;;;;;;;;;;;13.91;74.03;101440.56;1052614;28;837;-60
2021/11/05 03:53:10;;;;;;;;;;;;;;;13.92;73.95;101450.34;1048986;28;1819;-60
2021/11/05 03:54:01;;;;;;;;;;;;;;;13.91;73.21;101453.97;1048439;28;903;-60
2021/11/05 03:54:52;;;;;;;;;;;;;;;13.90;74.02;101455.78;1051077;28;2190;-60
2021/11/05 03:55:42;;;;;;;;;;;;;;;13.89;73.76;101448.72;1052804;28;654;-59
2021/11/05 03:56:32;;;;;;;;;;;;;;;13.89;73.80;101451.41;1052478;28;929;-59
2021/11/05 03:57:23;;;;;;;;;;;;;;;13.90;73.47;101455.78;1052279;28;689;-59
2021/11/05 03:58:13;;;;;;;;;;;;;;;13.90;73.84;101455.78;1052573;28;599;-59
2021/11/05 03:59:04;;;;;;;;;;;;;;;13.90;73.06;101460.28;1052667;28;757;-59
2021/11/05 03:59:54;;;;;;;;;;;;;;;13.91;73.56;101453.97;1052779;28;637;-59
2021/11/05 04:00:44;;;;;;;;;;;;;;;13.90;73.12;101460.28;1052476;28;933;-59
2021/11/05 04:01:35;;;;;;;;;;;;;;;13.89;73.20;101461.25;1052709;28;642;-58
2021/11/05 04:02:25;;;;;;;;;;;;;;;13.89;73.81;101459.44;1052457;28;703;-59
2021/11/05 04:03:16;;;;;;;;;;;;;;;13.89;73.88;101459.44;1052767;28;798;-59
2021/11/05 04:04:06;;;;;;;;;;;;;;;13.89;73.74;101463.94;1052823;28;626;-59
2021/11/05 04:04:57;;;;;;;;;;;;;;;13.87;73.64;101458.69;1051864;28;1929;-60
2021/11/05 04:05:47;;;;;;;;;;;;;;;13.89;73.58;101462.13;1047975;28;690;-59
2021/11/05 04:06:38;;;;;;;;;;;;;;;13.89;73.51;101461.25;1049298;28;695;-59
2021/11/05 04:07:28;;;;;;;;;;;;;;;13.89;73.38;101464.78;1049098;28;669;-59
2021/11/05 04:08:19;;;;;;;;;;;;;;;13.88;73.50;101470.25;1049309;28;661;-59
2021/11/05 04:09:09;;;;;;;;;;;;;;;13.88;73.03;101460.41;1048826;28;1423;-59
2021/11/05 04:10:00;;;;;;;;;;;;;;;13.89;73.58;101463.94;1049046;28;605;-59
2021/11/05 04:10:52;;;;;;;;;;;;;;;13.88;73.27;101467.56;1049078;28;798;-60
2021/11/05 04:11:42;;;;;;;;;;;;;;;13.86;73.12;101461.47;1048931;28;779;-60
2021/11/05 04:12:33;;;;;;;;;;;;;;;13.86;73.39;101464.13;1049061;28;760;-59
2021/11/05 04:13:23;;;;;;;;;;;;;;;13.85;73.39;101470.47;1049229;28;1126;-59
2021/11/05 04:14:13;;;;;;;;;;;;;;;13.86;73.78;101472.19;1049020;28;619;-59
2021/11/05 04:15:04;;;;;;;;;;;;;;;13.86;73.16;101467.69;1049180;28;834;-58
2021/11/05 04:15:54;;;;;;;;;;;;;;;13.87;73.84;101477.44;1049102;28;693;-60
2021/11/05 04:16:45;;;;;;;;;;;;;;;13.87;73.23;101473.91;1049107;28;607;-59
2021/11/05 04:17:35;;;;;;;;;;;;;;;13.88;72.99;101471.13;1049640;28;776;-59
2021/11/05 04:18:26;;;;;;;;;;;;;;;13.87;73.00;101473.91;1049250;28;666;-59
2021/11/05 04:19:16;;;;;;;;;;;;;;;13.86;73.57;101477.53;1050317;28;773;-59
2021/11/05 04:20:06;;;;;;;;;;;;;;;13.86;73.54;101470.34;1049786;28;668;-59
2021/11/05 04:20:57;;;;;;;;;;;;;;;13.85;72.91;101468.63;1050348;28;799;-59
2021/11/05 04:21:47;;;;;;;;;;;;;;;13.85;73.80;101473.13;1049508;28;1893;-59
2021/11/05 04:22:38;;;;;;;;;;;;;;;13.84;73.52;101468.75;1049326;28;668;-59
2021/11/05 04:23:28;;;;;;;;;;;;;;;13.85;73.35;101478.50;1049193;28;794;-59
2021/11/05 04:24:18;;;;;;;;;;;;;;;13.84;73.74;101476.78;1048987;28;1036;-59
2021/11/05 04:25:09;;;;;;;;;;;;;;;13.84;72.85;101487.50;1049345;28;637;-59